Taft, Iran
Current Conditions -  °F | °C
As of 5:30 PM on Friday 28 Nov 2014 (Local Time) from OIYY Reporting Station
Few Clouds Few Clouds  
Wind Chill: 57°   Ceiling: Unl
Heat Index: 57°   Visibility: 5mi
Dew Point: 36°   Wind: 5mph
Humidity: 44%   Direction: 320°NW
Pressure: 30.12"   Gusts: NA
Location:  31.73°N, 54.22°E
Report Text: OIYY 281330Z 32004KT 8000 FEW035 14/02 Q1020
Loading
Personal Weather Stations






























Interactive Weather Map New forecast layout! Learn more

10-Day Weather Forecast

Advertisements
Track Severe Weather on mobile